Hoven, South Dakota
Current Conditions -  °F | °C
As of 3:52 AM on Saturday 25 Oct 2014 (Local Time) from KMBG Reporting Station
Clear Clear  
Wind Chill: 51°   Ceiling: Unl
Heat Index: 51°   Visibility: 10mi
Dew Point: 39°   Wind: 5mph
Humidity: 63%   Direction: 340°NNW
Pressure: 30.08"   Gusts: NA
Location:  45.24°N, 99.78°W
Report Text: KMBG 250852Z AUTO 34004KT 10SM CLR 11/04 A3008 RMK AO2 SLP183 T01060039 51010
Loading
Personal Weather Stations






























Interactive Weather Map
Tropical Storm Tracking
New forecast layout! Learn more

10-Day Weather Forecast

Advertisements
Track Severe Weather on mobile